sensor_id;sensor_type;location;lat;lon;timestamp;P1;durP1;ratioP1;P2;durP2;ratioP2
74872;SDS011;68776;44.762;37.698;2023-07-24T00:00:25;7.78;;;2.15;;
74872;SDS011;68776;44.762;37.698;2023-07-24T00:01:26;6.07;;;2.42;;
74872;SDS011;68776;44.762;37.698;2023-07-24T00:02:27;6.28;;;2.47;;
74872;SDS011;68776;44.762;37.698;2023-07-24T00:03:28;7.05;;;2.10;;
74872;SDS011;68776;44.762;37.698;2023-07-24T00:04:30;5.20;;;2.22;;
74872;SDS011;68776;44.762;37.698;2023-07-24T00:05:32;5.32;;;1.90;;
74872;SDS011;68776;44.762;37.698;2023-07-24T00:06:33;10.02;;;2.28;;
74872;SDS011;68776;44.762;37.698;2023-07-24T00:07:34;6.47;;;2.15;;
74872;SDS011;68776;44.762;37.698;2023-07-24T00:08:35;5.22;;;2.42;;
74872;SDS011;68776;44.762;37.698;2023-07-24T00:09:36;6.47;;;1.77;;
74872;SDS011;68776;44.762;37.698;2023-07-24T00:10:37;6.40;;;2.15;;
74872;SDS011;68776;44.762;37.698;2023-07-24T00:11:38;5.25;;;1.90;;
74872;SDS011;68776;44.762;37.698;2023-07-24T00:12:39;5.90;;;1.98;;
74872;SDS011;68776;44.762;37.698;2023-07-24T00:13:39;6.20;;;1.90;;
74872;SDS011;68776;44.762;37.698;2023-07-24T00:14:40;5.60;;;1.92;;
74872;SDS011;68776;44.762;37.698;2023-07-24T00:15:41;5.13;;;1.90;;
74872;SDS011;68776;44.762;37.698;2023-07-24T00:16:42;4.78;;;2.08;;
74872;SDS011;68776;44.762;37.698;2023-07-24T00:17:43;4.63;;;1.73;;
74872;SDS011;68776;44.762;37.698;2023-07-24T00:18:44;8.10;;;1.92;;
74872;SDS011;68776;44.762;37.698;2023-07-24T00:19:45;6.53;;;2.17;;
74872;SDS011;68776;44.762;37.698;2023-07-24T00:20:46;7.88;;;2.53;;
74872;SDS011;68776;44.762;37.698;2023-07-24T00:21:47;4.82;;;2.03;;
74872;SDS011;68776;44.762;37.698;2023-07-24T00:22:48;5.13;;;2.05;;
74872;SDS011;68776;44.762;37.698;2023-07-24T00:23:49;5.30;;;2.03;;
74872;SDS011;68776;44.762;37.698;2023-07-24T00:24:50;5.40;;;2.35;;
74872;SDS011;68776;44.762;37.698;2023-07-24T00:25:50;5.45;;;2.00;;
74872;SDS011;68776;44.762;37.698;2023-07-24T00:26:51;6.43;;;2.23;;
74872;SDS011;68776;44.762;37.698;2023-07-24T00:27:52;5.75;;;2.00;;
74872;SDS011;68776;44.762;37.698;2023-07-24T00:28:53;8.00;;;2.20;;
74872;SDS011;68776;44.762;37.698;2023-07-24T00:29:54;5.20;;;2.05;;
74872;SDS011;68776;44.762;37.698;2023-07-24T00:30:58;7.87;;;2.23;;
74872;SDS011;68776;44.762;37.698;2023-07-24T00:31:59;6.38;;;2.25;;
74872;SDS011;68776;44.762;37.698;2023-07-24T00:33:00;5.40;;;2.15;;
74872;SDS011;68776;44.762;37.698;2023-07-24T00:34:01;5.97;;;2.58;;
74872;SDS011;68776;44.762;37.698;2023-07-24T00:35:02;5.43;;;2.05;;
74872;SDS011;68776;44.762;37.698;2023-07-24T00:36:04;5.60;;;2.10;;
74872;SDS011;68776;44.762;37.698;2023-07-24T00:37:05;5.60;;;2.60;;
74872;SDS011;68776;44.762;37.698;2023-07-24T00:38:06;6.80;;;2.25;;
74872;SDS011;68776;44.762;37.698;2023-07-24T00:39:07;5.63;;;2.22;;
74872;SDS011;68776;44.762;37.698;2023-07-24T00:40:08;5.22;;;2.05;;
74872;SDS011;68776;44.762;37.698;2023-07-24T00:41:09;7.32;;;3.13;;
74872;SDS011;68776;44.762;37.698;2023-07-24T00:42:10;8.90;;;3.10;;
74872;SDS011;68776;44.762;37.698;2023-07-24T00:43:10;6.47;;;2.70;;
74872;SDS011;68776;44.762;37.698;2023-07-24T00:44:11;6.03;;;2.72;;
74872;SDS011;68776;44.762;37.698;2023-07-24T00:45:12;6.80;;;2.58;;
74872;SDS011;68776;44.762;37.698;2023-07-24T00:46:13;11.77;;;3.58;;
74872;SDS011;68776;44.762;37.698;2023-07-24T00:47:15;7.82;;;3.17;;
74872;SDS011;68776;44.762;37.698;2023-07-24T02:40:10;330.10;;;105.93;;
74872;SDS011;68776;44.762;37.698;2023-07-24T02:41:12;217.55;;;84.20;;
74872;SDS011;68776;44.762;37.698;2023-07-24T02:42:13;333.17;;;106.03;;
74872;SDS011;68776;44.762;37.698;2023-07-24T02:43:14;185.63;;;76.28;;
74872;SDS011;68776;44.762;37.698;2023-07-24T02:44:18;206.73;;;81.18;;
74872;SDS011;68776;44.762;37.698;2023-07-24T02:45:19;189.60;;;76.13;;
74872;SDS011;68776;44.762;37.698;2023-07-24T02:46:19;197.07;;;78.45;;
74872;SDS011;68776;44.762;37.698;2023-07-24T02:47:20;178.07;;;74.18;;
74872;SDS011;68776;44.762;37.698;2023-07-24T02:48:21;128.18;;;62.25;;
74872;SDS011;68776;44.762;37.698;2023-07-24T02:49:23;131.77;;;62.20;;
74872;SDS011;68776;44.762;37.698;2023-07-24T02:50:25;112.75;;;58.13;;
74872;SDS011;68776;44.762;37.698;2023-07-24T02:51:26;115.43;;;58.40;;
74872;SDS011;68776;44.762;37.698;2023-07-24T02:52:27;109.00;;;57.50;;
74872;SDS011;68776;44.762;37.698;2023-07-24T02:53:27;40.97;;;36.58;;
74872;SDS011;68776;44.762;37.698;2023-07-24T02:54:28;38.20;;;34.30;;
74872;SDS011;68776;44.762;37.698;2023-07-24T02:55:30;38.53;;;34.60;;
74872;SDS011;68776;44.762;37.698;2023-07-24T02:56:31;38.33;;;34.42;;
74872;SDS011;68776;44.762;37.698;2023-07-24T02:57:32;38.80;;;32.28;;
74872;SDS011;68776;44.762;37.698;2023-07-24T03:06:41;77.22;;;48.41;;
74872;SDS011;68776;44.762;37.698;2023-07-24T03:07:42;39.33;;;35.22;;
74872;SDS011;68776;44.762;37.698;2023-07-24T03:08:43;37.78;;;34.17;;
74872;SDS011;68776;44.762;37.698;2023-07-24T03:09:44;36.20;;;32.50;;
74872;SDS011;68776;44.762;37.698;2023-07-24T03:10:45;35.58;;;32.08;;
74872;SDS011;68776;44.762;37.698;2023-07-24T03:11:49;34.33;;;31.10;;
74872;SDS011;68776;44.762;37.698;2023-07-24T03:12:50;32.95;;;29.85;;
74872;SDS011;68776;44.762;37.698;2023-07-24T03:13:51;36.13;;;32.42;;
74872;SDS011;68776;44.762;37.698;2023-07-24T03:14:52;34.45;;;31.23;;
74872;SDS011;68776;44.762;37.698;2023-07-24T03:15:54;33.72;;;30.63;;
74872;SDS011;68776;44.762;37.698;2023-07-24T03:16:56;33.00;;;29.92;;
74872;SDS011;68776;44.762;37.698;2023-07-24T03:17:57;32.95;;;29.60;;
74872;SDS011;68776;44.762;37.698;2023-07-24T03:18:58;37.28;;;33.58;;
74872;SDS011;68776;44.762;37.698;2023-07-24T03:20:07;37.75;;;33.92;;
74872;SDS011;68776;44.762;37.698;2023-07-24T03:21:09;38.17;;;34.10;;
74872;SDS011;68776;44.762;37.698;2023-07-24T03:22:10;42.78;;;37.45;;
74872;SDS011;68776;44.762;37.698;2023-07-24T03:23:11;44.17;;;38.33;;
74872;SDS011;68776;44.762;37.698;2023-07-24T03:24:12;46.80;;;39.00;;
74872;SDS011;68776;44.762;37.698;2023-07-24T03:25:13;44.47;;;38.00;;
74872;SDS011;68776;44.762;37.698;2023-07-24T03:26:14;39.42;;;35.25;;
74872;SDS011;68776;44.762;37.698;2023-07-24T03:27:15;41.70;;;37.17;;
74872;SDS011;68776;44.762;37.698;2023-07-24T03:28:16;42.88;;;36.70;;
74872;SDS011;68776;44.762;37.698;2023-07-24T03:29:17;41.15;;;36.60;;
74872;SDS011;68776;44.762;37.698;2023-07-24T03:30:19;44.72;;;37.53;;
74872;SDS011;68776;44.762;37.698;2023-07-24T03:31:21;41.70;;;36.95;;
74872;SDS011;68776;44.762;37.698;2023-07-24T03:32:22;43.33;;;37.28;;
74872;SDS011;68776;44.762;37.698;2023-07-24T03:33:23;46.92;;;38.22;;
74872;SDS011;68776;44.762;37.698;2023-07-24T03:34:25;46.30;;;39.08;;
74872;SDS011;68776;44.762;37.698;2023-07-24T03:35:26;47.10;;;38.75;;
74872;SDS011;68776;44.762;37.698;2023-07-24T03:36:27;47.00;;;39.42;;
74872;SDS011;68776;44.762;37.698;2023-07-24T03:37:28;46.17;;;38.65;;
74872;SDS011;68776;44.762;37.698;2023-07-24T03:38:29;43.27;;;37.33;;
74872;SDS011;68776;44.762;37.698;2023-07-24T03:39:30;42.47;;;37.17;;
74872;SDS011;68776;44.762;37.698;2023-07-24T03:40:31;41.23;;;36.30;;
74872;SDS011;68776;44.762;37.698;2023-07-24T03:41:32;42.35;;;36.60;;
74872;SDS011;68776;44.762;37.698;2023-07-24T03:42:33;41.13;;;36.72;;
74872;SDS011;68776;44.762;37.698;2023-07-24T03:43:34;44.00;;;38.07;;
74872;SDS011;68776;44.762;37.698;2023-07-24T03:44:35;46.55;;;37.75;;
74872;SDS011;68776;44.762;37.698;2023-07-24T03:45:36;44.35;;;38.35;;
74872;SDS011;68776;44.762;37.698;2023-07-24T03:46:37;46.93;;;38.83;;
74872;SDS011;68776;44.762;37.698;2023-07-24T03:47:38;47.03;;;38.65;;
74872;SDS011;68776;44.762;37.698;2023-07-24T03:48:39;45.63;;;38.40;;
74872;SDS011;68776;44.762;37.698;2023-07-24T03:49:40;42.20;;;37.00;;
74872;SDS011;68776;44.762;37.698;2023-07-24T03:50:41;42.53;;;36.73;;
74872;SDS011;68776;44.762;37.698;2023-07-24T03:51:42;42.45;;;37.33;;
74872;SDS011;68776;44.762;37.698;2023-07-24T03:52:43;44.83;;;38.17;;
74872;SDS011;68776;44.762;37.698;2023-07-24T03:53:44;46.35;;;38.25;;
74872;SDS011;68776;44.762;37.698;2023-07-24T03:54:45;45.03;;;37.53;;
74872;SDS011;68776;44.762;37.698;2023-07-24T03:55:46;43.95;;;38.30;;
74872;SDS011;68776;44.762;37.698;2023-07-24T03:56:47;42.75;;;37.55;;
74872;SDS011;68776;44.762;37.698;2023-07-24T03:57:48;42.00;;;36.88;;
74872;SDS011;68776;44.762;37.698;2023-07-24T03:58:49;42.88;;;36.90;;
74872;SDS011;68776;44.762;37.698;2023-07-24T03:59:50;45.03;;;37.47;;
74872;SDS011;68776;44.762;37.698;2023-07-24T04:00:51;43.25;;;37.40;;
74872;SDS011;68776;44.762;37.698;2023-07-24T04:01:52;44.73;;;37.97;;
74872;SDS011;68776;44.762;37.698;2023-07-24T04:02:53;43.13;;;37.92;;
74872;SDS011;68776;44.762;37.698;2023-07-24T04:03:54;47.53;;;38.25;;
74872;SDS011;68776;44.762;37.698;2023-07-24T04:04:55;43.85;;;37.70;;
74872;SDS011;68776;44.762;37.698;2023-07-24T04:05:56;45.97;;;38.28;;
74872;SDS011;68776;44.762;37.698;2023-07-24T04:06:57;41.53;;;36.50;;
74872;SDS011;68776;44.762;37.698;2023-07-24T04:07:58;45.40;;;37.38;;
74872;SDS011;68776;44.762;37.698;2023-07-24T04:08:59;44.45;;;38.13;;
74872;SDS011;68776;44.762;37.698;2023-07-24T04:10:00;48.17;;;39.60;;
74872;SDS011;68776;44.762;37.698;2023-07-24T04:11:01;45.42;;;38.38;;
74872;SDS011;68776;44.762;37.698;2023-07-24T04:12:04;46.70;;;38.78;;
74872;SDS011;68776;44.762;37.698;2023-07-24T04:13:06;49.35;;;39.45;;
74872;SDS011;68776;44.762;37.698;2023-07-24T04:14:07;49.42;;;39.45;;
74872;SDS011;68776;44.762;37.698;2023-07-24T04:15:08;45.22;;;38.22;;
74872;SDS011;68776;44.762;37.698;2023-07-24T04:16:09;45.38;;;38.47;;
74872;SDS011;68776;44.762;37.698;2023-07-24T04:17:10;51.67;;;40.42;;
74872;SDS011;68776;44.762;37.698;2023-07-24T04:18:11;49.10;;;39.50;;
74872;SDS011;68776;44.762;37.698;2023-07-24T04:19:12;54.65;;;41.55;;
74872;SDS011;68776;44.762;37.698;2023-07-24T04:20:13;52.38;;;40.83;;
74872;SDS011;68776;44.762;37.698;2023-07-24T04:21:14;52.35;;;41.22;;
74872;SDS011;68776;44.762;37.698;2023-07-24T04:22:14;54.45;;;41.55;;
74872;SDS011;68776;44.762;37.698;2023-07-24T04:23:15;52.58;;;40.47;;
74872;SDS011;68776;44.762;37.698;2023-07-24T04:24:16;45.13;;;38.00;;
74872;SDS011;68776;44.762;37.698;2023-07-24T04:25:17;43.97;;;37.55;;
74872;SDS011;68776;44.762;37.698;2023-07-24T04:26:18;43.28;;;37.17;;
74872;SDS011;68776;44.762;37.698;2023-07-24T04:27:19;45.50;;;38.28;;
74872;SDS011;68776;44.762;37.698;2023-07-24T04:28:20;43.05;;;37.35;;
74872;SDS011;68776;44.762;37.698;2023-07-24T04:29:21;43.67;;;37.57;;
74872;SDS011;68776;44.762;37.698;2023-07-24T04:30:24;43.38;;;37.47;;
74872;SDS011;68776;44.762;37.698;2023-07-24T04:31:25;43.65;;;37.85;;
74872;SDS011;68776;44.762;37.698;2023-07-24T04:32:27;40.88;;;36.28;;
74872;SDS011;68776;44.762;37.698;2023-07-24T04:33:28;42.65;;;37.47;;
74872;SDS011;68776;44.762;37.698;2023-07-24T04:34:29;40.15;;;35.85;;
74872;SDS011;68776;44.762;37.698;2023-07-24T04:35:30;40.90;;;36.38;;
74872;SDS011;68776;44.762;37.698;2023-07-24T04:36:31;45.53;;;38.40;;
74872;SDS011;68776;44.762;37.698;2023-07-24T04:37:32;46.90;;;38.67;;
74872;SDS011;68776;44.762;37.698;2023-07-24T04:38:33;47.65;;;39.13;;
74872;SDS011;68776;44.762;37.698;2023-07-24T04:39:34;57.80;;;40.22;;
74872;SDS011;68776;44.762;37.698;2023-07-24T04:40:35;50.10;;;40.08;;
74872;SDS011;68776;44.762;37.698;2023-07-24T04:41:36;47.22;;;38.65;;
74872;SDS011;68776;44.762;37.698;2023-07-24T04:42:37;49.63;;;38.57;;
74872;SDS011;68776;44.762;37.698;2023-07-24T04:43:37;46.63;;;38.47;;
74872;SDS011;68776;44.762;37.698;2023-07-24T04:44:38;50.58;;;39.28;;
74872;SDS011;68776;44.762;37.698;2023-07-24T04:45:39;44.78;;;37.65;;
74872;SDS011;68776;44.762;37.698;2023-07-24T04:46:40;45.22;;;37.80;;
74872;SDS011;68776;44.762;37.698;2023-07-24T04:47:41;42.50;;;36.85;;
74872;SDS011;68776;44.762;37.698;2023-07-24T04:48:42;41.35;;;36.33;;
74872;SDS011;68776;44.762;37.698;2023-07-24T04:49:43;40.95;;;35.92;;
74872;SDS011;68776;44.762;37.698;2023-07-24T04:50:44;38.22;;;34.30;;
74872;SDS011;68776;44.762;37.698;2023-07-24T04:51:45;36.47;;;32.88;;
74872;SDS011;68776;44.762;37.698;2023-07-24T04:52:46;38.57;;;34.57;;
74872;SDS011;68776;44.762;37.698;2023-07-24T04:53:47;45.40;;;36.60;;
74872;SDS011;68776;44.762;37.698;2023-07-24T04:54:48;39.60;;;35.33;;
74872;SDS011;68776;44.762;37.698;2023-07-24T04:55:49;37.63;;;33.72;;
74872;SDS011;68776;44.762;37.698;2023-07-24T04:56:50;36.65;;;32.85;;
74872;SDS011;68776;44.762;37.698;2023-07-24T04:57:51;40.00;;;33.13;;
74872;SDS011;68776;44.762;37.698;2023-07-24T04:58:52;36.00;;;32.30;;
74872;SDS011;68776;44.762;37.698;2023-07-24T04:59:53;36.07;;;32.53;;
74872;SDS011;68776;44.762;37.698;2023-07-24T05:00:54;35.63;;;32.13;;
74872;SDS011;68776;44.762;37.698;2023-07-24T05:01:55;35.30;;;31.90;;
74872;SDS011;68776;44.762;37.698;2023-07-24T05:02:56;34.78;;;31.48;;
74872;SDS011;68776;44.762;37.698;2023-07-24T05:03:57;36.95;;;33.15;;
74872;SDS011;68776;44.762;37.698;2023-07-24T05:04:58;40.92;;;36.42;;
74872;SDS011;68776;44.762;37.698;2023-07-24T05:05:59;38.72;;;34.63;;
74872;SDS011;68776;44.762;37.698;2023-07-24T05:07:00;37.22;;;33.33;;
74872;SDS011;68776;44.762;37.698;2023-07-24T05:08:01;35.80;;;32.17;;
74872;SDS011;68776;44.762;37.698;2023-07-24T05:09:02;35.00;;;31.60;;
74872;SDS011;68776;44.762;37.698;2023-07-24T05:10:03;33.50;;;30.30;;
74872;SDS011;68776;44.762;37.698;2023-07-24T05:11:04;33.00;;;29.90;;
74872;SDS011;68776;44.762;37.698;2023-07-24T05:12:05;33.53;;;30.35;;
74872;SDS011;68776;44.762;37.698;2023-07-24T05:13:06;32.97;;;29.92;;
74872;SDS011;68776;44.762;37.698;2023-07-24T05:14:07;32.88;;;29.67;;
74872;SDS011;68776;44.762;37.698;2023-07-24T05:15:08;34.30;;;31.00;;
74872;SDS011;68776;44.762;37.698;2023-07-24T05:16:10;33.15;;;30.00;;
74872;SDS011;68776;44.762;37.698;2023-07-24T05:17:11;33.47;;;30.33;;
74872;SDS011;68776;44.762;37.698;2023-07-24T05:18:11;34.57;;;31.17;;
74872;SDS011;68776;44.762;37.698;2023-07-24T05:19:12;33.55;;;30.35;;
74872;SDS011;68776;44.762;37.698;2023-07-24T05:20:13;34.27;;;30.97;;
74872;SDS011;68776;44.762;37.698;2023-07-24T05:21:14;34.95;;;31.65;;
74872;SDS011;68776;44.762;37.698;2023-07-24T05:22:15;35.72;;;32.20;;
74872;SDS011;68776;44.762;37.698;2023-07-24T05:23:16;36.75;;;33.05;;
74872;SDS011;68776;44.762;37.698;2023-07-24T05:24:17;35.03;;;31.42;;
74872;SDS011;68776;44.762;37.698;2023-07-24T05:25:18;34.92;;;31.38;;
74872;SDS011;68776;44.762;37.698;2023-07-24T05:26:19;35.97;;;32.28;;
74872;SDS011;68776;44.762;37.698;2023-07-24T05:27:22;36.67;;;32.97;;
74872;SDS011;68776;44.762;37.698;2023-07-24T05:28:23;37.07;;;33.27;;
74872;SDS011;68776;44.762;37.698;2023-07-24T05:29:26;36.38;;;32.78;;
74872;SDS011;68776;44.762;37.698;2023-07-24T05:30:27;37.15;;;33.25;;
74872;SDS011;68776;44.762;37.698;2023-07-24T05:31:28;37.47;;;33.70;;
74872;SDS011;68776;44.762;37.698;2023-07-24T05:32:29;37.30;;;33.47;;
74872;SDS011;68776;44.762;37.698;2023-07-24T05:33:30;37.47;;;33.47;;
74872;SDS011;68776;44.762;37.698;2023-07-24T05:34:32;37.75;;;33.90;;
74872;SDS011;68776;44.762;37.698;2023-07-24T05:35:33;36.37;;;32.67;;
74872;SDS011;68776;44.762;37.698;2023-07-24T05:36:34;35.90;;;32.28;;
74872;SDS011;68776;44.762;37.698;2023-07-24T05:37:35;36.33;;;32.53;;
74872;SDS011;68776;44.762;37.698;2023-07-24T05:38:36;37.75;;;33.85;;
74872;SDS011;68776;44.762;37.698;2023-07-24T05:39:37;35.78;;;32.20;;
74872;SDS011;68776;44.762;37.698;2023-07-24T05:40:37;37.47;;;33.58;;
74872;SDS011;68776;44.762;37.698;2023-07-24T05:41:39;38.95;;;34.83;;
74872;SDS011;68776;44.762;37.698;2023-07-24T05:42:40;39.87;;;35.57;;
74872;SDS011;68776;44.762;37.698;2023-07-24T05:43:43;40.35;;;35.25;;
74872;SDS011;68776;44.762;37.698;2023-07-24T05:44:44;38.75;;;34.65;;
74872;SDS011;68776;44.762;37.698;2023-07-24T05:45:45;39.55;;;35.28;;
74872;SDS011;68776;44.762;37.698;2023-07-24T05:46:46;42.33;;;35.97;;
74872;SDS011;68776;44.762;37.698;2023-07-24T05:47:47;44.78;;;36.47;;
74872;SDS011;68776;44.762;37.698;2023-07-24T05:48:48;41.10;;;36.63;;
74872;SDS011;68776;44.762;37.698;2023-07-24T05:49:49;40.85;;;36.00;;
74872;SDS011;68776;44.762;37.698;2023-07-24T05:50:50;38.28;;;34.25;;
74872;SDS011;68776;44.762;37.698;2023-07-24T05:51:51;42.85;;;36.25;;
74872;SDS011;68776;44.762;37.698;2023-07-24T05:52:54;45.83;;;36.42;;
74872;SDS011;68776;44.762;37.698;2023-07-24T05:53:55;41.75;;;36.38;;
74872;SDS011;68776;44.762;37.698;2023-07-24T05:54:56;43.33;;;36.47;;
74872;SDS011;68776;44.762;37.698;2023-07-24T05:56:00;42.83;;;36.85;;
74872;SDS011;68776;44.762;37.698;2023-07-24T05:57:01;42.40;;;36.75;;
74872;SDS011;68776;44.762;37.698;2023-07-24T05:58:02;42.85;;;35.90;;
74872;SDS011;68776;44.762;37.698;2023-07-24T05:59:03;40.58;;;35.53;;
74872;SDS011;68776;44.762;37.698;2023-07-24T06:00:05;46.75;;;35.70;;
74872;SDS011;68776;44.762;37.698;2023-07-24T06:01:11;41.65;;;36.38;;
74872;SDS011;68776;44.762;37.698;2023-07-24T06:02:12;40.28;;;35.90;;
74872;SDS011;68776;44.762;37.698;2023-07-24T06:03:13;39.90;;;35.40;;
74872;SDS011;68776;44.762;37.698;2023-07-24T06:04:14;39.80;;;35.47;;
74872;SDS011;68776;44.762;37.698;2023-07-24T06:05:16;42.83;;;36.67;;
74872;SDS011;68776;44.762;37.698;2023-07-24T06:06:17;42.15;;;36.63;;
74872;SDS011;68776;44.762;37.698;2023-07-24T06:07:18;40.03;;;35.00;;
74872;SDS011;68776;44.762;37.698;2023-07-24T06:08:19;39.13;;;35.03;;
74872;SDS011;68776;44.762;37.698;2023-07-24T06:09:21;38.75;;;34.55;;
74872;SDS011;68776;44.762;37.698;2023-07-24T06:10:22;39.10;;;34.90;;
74872;SDS011;68776;44.762;37.698;2023-07-24T06:11:23;38.25;;;34.15;;
74872;SDS011;68776;44.762;37.698;2023-07-24T06:12:24;40.05;;;34.45;;
74872;SDS011;68776;44.762;37.698;2023-07-24T06:13:25;37.30;;;33.40;;
74872;SDS011;68776;44.762;37.698;2023-07-24T06:14:26;37.63;;;33.72;;
74872;SDS011;68776;44.762;37.698;2023-07-24T06:15:27;39.13;;;34.42;;
74872;SDS011;68776;44.762;37.698;2023-07-24T06:16:28;36.88;;;32.97;;
74872;SDS011;68776;44.762;37.698;2023-07-24T06:17:29;40.58;;;33.75;;
74872;SDS011;68776;44.762;37.698;2023-07-24T06:18:30;36.63;;;32.92;;
74872;SDS011;68776;44.762;37.698;2023-07-24T06:19:31;36.92;;;33.13;;
74872;SDS011;68776;44.762;37.698;2023-07-24T06:20:32;38.30;;;34.17;;
74872;SDS011;68776;44.762;37.698;2023-07-24T06:21:33;38.88;;;34.60;;
74872;SDS011;68776;44.762;37.698;2023-07-24T06:22:34;39.20;;;35.08;;
74872;SDS011;68776;44.762;37.698;2023-07-24T06:23:35;40.65;;;34.72;;
74872;SDS011;68776;44.762;37.698;2023-07-24T06:24:36;37.50;;;33.70;;
74872;SDS011;68776;44.762;37.698;2023-07-24T06:25:38;38.72;;;34.45;;
74872;SDS011;68776;44.762;37.698;2023-07-24T06:26:39;43.03;;;35.55;;
74872;SDS011;68776;44.762;37.698;2023-07-24T06:27:40;41.28;;;35.80;;
74872;SDS011;68776;44.762;37.698;2023-07-24T06:28:41;41.30;;;36.15;;
74872;SDS011;68776;44.762;37.698;2023-07-24T06:29:43;40.10;;;35.72;;
74872;SDS011;68776;44.762;37.698;2023-07-24T06:30:44;40.05;;;34.97;;
74872;SDS011;68776;44.762;37.698;2023-07-24T06:31:45;39.15;;;34.95;;
74872;SDS011;68776;44.762;37.698;2023-07-24T06:32:46;41.85;;;36.10;;
74872;SDS011;68776;44.762;37.698;2023-07-24T06:33:46;40.80;;;35.00;;
74872;SDS011;68776;44.762;37.698;2023-07-24T06:34:47;38.70;;;34.60;;
74872;SDS011;68776;44.762;37.698;2023-07-24T06:35:49;38.20;;;34.20;;
74872;SDS011;68776;44.762;37.698;2023-07-24T06:36:51;38.35;;;34.25;;
74872;SDS011;68776;44.762;37.698;2023-07-24T06:37:52;37.30;;;33.40;;
74872;SDS011;68776;44.762;37.698;2023-07-24T06:38:53;38.40;;;34.40;;
74872;SDS011;68776;44.762;37.698;2023-07-24T06:39:54;36.63;;;32.88;;
74872;SDS011;68776;44.762;37.698;2023-07-24T06:40:55;36.08;;;32.38;;
74872;SDS011;68776;44.762;37.698;2023-07-24T06:41:56;35.45;;;31.95;;
74872;SDS011;68776;44.762;37.698;2023-07-24T06:42:57;32.73;;;29.57;;
74872;SDS011;68776;44.762;37.698;2023-07-24T06:43:58;30.73;;;28.05;;
74872;SDS011;68776;44.762;37.698;2023-07-24T06:44:59;32.95;;;29.73;;
74872;SDS011;68776;44.762;37.698;2023-07-24T06:46:00;31.02;;;28.23;;
74872;SDS011;68776;44.762;37.698;2023-07-24T06:47:01;30.02;;;27.40;;
74872;SDS011;68776;44.762;37.698;2023-07-24T06:48:02;30.40;;;27.70;;
74872;SDS011;68776;44.762;37.698;2023-07-24T06:49:03;29.77;;;27.17;;
74872;SDS011;68776;44.762;37.698;2023-07-24T06:50:04;29.15;;;26.55;;
74872;SDS011;68776;44.762;37.698;2023-07-24T06:51:06;27.73;;;25.33;;
74872;SDS011;68776;44.762;37.698;2023-07-24T06:52:07;30.30;;;27.60;;
74872;SDS011;68776;44.762;37.698;2023-07-24T06:53:08;30.77;;;27.97;;
74872;SDS011;68776;44.762;37.698;2023-07-24T06:54:09;30.38;;;27.55;;
74872;SDS011;68776;44.762;37.698;2023-07-24T06:55:11;30.20;;;27.50;;
74872;SDS011;68776;44.762;37.698;2023-07-24T06:56:12;30.73;;;28.03;;
74872;SDS011;68776;44.762;37.698;2023-07-24T06:57:14;31.45;;;28.55;;
74872;SDS011;68776;44.762;37.698;2023-07-24T06:58:15;31.40;;;28.60;;
74872;SDS011;68776;44.762;37.698;2023-07-24T06:59:16;31.17;;;28.38;;
74872;SDS011;68776;44.762;37.698;2023-07-24T07:00:17;31.13;;;28.33;;
74872;SDS011;68776;44.762;37.698;2023-07-24T07:01:18;31.10;;;28.30;;
74872;SDS011;68776;44.762;37.698;2023-07-24T07:02:19;29.33;;;26.83;;
74872;SDS011;68776;44.762;37.698;2023-07-24T07:03:20;29.55;;;26.95;;
74872;SDS011;68776;44.762;37.698;2023-07-24T07:04:21;29.35;;;26.75;;
74872;SDS011;68776;44.762;37.698;2023-07-24T07:05:21;28.40;;;25.80;;
74872;SDS011;68776;44.762;37.698;2023-07-24T07:06:22;28.92;;;26.42;;
74872;SDS011;68776;44.762;37.698;2023-07-24T07:07:23;29.90;;;27.30;;
74872;SDS011;68776;44.762;37.698;2023-07-24T07:08:24;30.02;;;27.35;;
74872;SDS011;68776;44.762;37.698;2023-07-24T07:09:25;31.10;;;28.30;;
74872;SDS011;68776;44.762;37.698;2023-07-24T07:10:26;30.10;;;27.40;;
74872;SDS011;68776;44.762;37.698;2023-07-24T07:11:27;29.65;;;27.05;;
74872;SDS011;68776;44.762;37.698;2023-07-24T07:12:28;29.25;;;26.65;;
74872;SDS011;68776;44.762;37.698;2023-07-24T07:13:29;28.67;;;26.17;;
74872;SDS011;68776;44.762;37.698;2023-07-24T07:14:30;28.40;;;25.98;;
74872;SDS011;68776;44.762;37.698;2023-07-24T07:15:31;27.63;;;25.30;;
74872;SDS011;68776;44.762;37.698;2023-07-24T07:16:32;28.00;;;25.60;;
74872;SDS011;68776;44.762;37.698;2023-07-24T07:17:33;29.90;;;27.20;;
74872;SDS011;68776;44.762;37.698;2023-07-24T07:18:34;27.73;;;25.23;;
74872;SDS011;68776;44.762;37.698;2023-07-24T07:19:35;25.65;;;23.55;;
74872;SDS011;68776;44.762;37.698;2023-07-24T07:20:36;27.15;;;24.85;;
74872;SDS011;68776;44.762;37.698;2023-07-24T07:21:37;28.23;;;25.85;;
74872;SDS011;68776;44.762;37.698;2023-07-24T07:22:38;26.13;;;23.70;;
74872;SDS011;68776;44.762;37.698;2023-07-24T07:23:39;26.92;;;24.73;;
74872;SDS011;68776;44.762;37.698;2023-07-24T07:24:40;26.80;;;24.63;;
74872;SDS011;68776;44.762;37.698;2023-07-24T07:25:41;24.08;;;22.17;;
74872;SDS011;68776;44.762;37.698;2023-07-24T07:26:45;29.02;;;26.23;;
74872;SDS011;68776;44.762;37.698;2023-07-24T07:27:46;25.40;;;23.30;;
74872;SDS011;68776;44.762;37.698;2023-07-24T07:28:47;24.02;;;22.13;;
74872;SDS011;68776;44.762;37.698;2023-07-24T07:29:48;24.60;;;22.40;;
74872;SDS011;68776;44.762;37.698;2023-07-24T07:30:49;20.92;;;19.27;;
74872;SDS011;68776;44.762;37.698;2023-07-24T07:31:50;19.75;;;18.25;;
74872;SDS011;68776;44.762;37.698;2023-07-24T07:32:51;19.95;;;18.45;;
74872;SDS011;68776;44.762;37.698;2023-07-24T07:33:52;20.92;;;19.33;;
74872;SDS011;68776;44.762;37.698;2023-07-24T07:34:53;21.73;;;19.42;;
74872;SDS011;68776;44.762;37.698;2023-07-24T07:35:54;22.80;;;20.90;;
74872;SDS011;68776;44.762;37.698;2023-07-24T07:36:55;23.88;;;21.98;;
74872;SDS011;68776;44.762;37.698;2023-07-24T07:37:56;26.25;;;24.02;;
74872;SDS011;68776;44.762;37.698;2023-07-24T07:38:57;26.38;;;24.08;;
74872;SDS011;68776;44.762;37.698;2023-07-24T07:39:58;21.23;;;19.58;;
74872;SDS011;68776;44.762;37.698;2023-07-24T07:41:03;19.23;;;17.80;;
74872;SDS011;68776;44.762;37.698;2023-07-24T07:42:05;20.90;;;19.30;;
74872;SDS011;68776;44.762;37.698;2023-07-24T07:43:06;18.48;;;16.98;;
74872;SDS011;68776;44.762;37.698;2023-07-24T07:44:07;15.35;;;13.85;;
74872;SDS011;68776;44.762;37.698;2023-07-24T07:45:08;15.77;;;14.38;;
74872;SDS011;68776;44.762;37.698;2023-07-24T07:46:09;15.07;;;13.98;;
74872;SDS011;68776;44.762;37.698;2023-07-24T07:47:12;13.38;;;12.27;;
74872;SDS011;68776;44.762;37.698;2023-07-24T07:48:13;12.88;;;11.88;;
74872;SDS011;68776;44.762;37.698;2023-07-24T07:49:14;14.98;;;13.88;;
74872;SDS011;68776;44.762;37.698;2023-07-24T07:50:15;14.73;;;13.52;;
74872;SDS011;68776;44.762;37.698;2023-07-24T07:51:16;16.30;;;15.10;;
74872;SDS011;68776;44.762;37.698;2023-07-24T07:52:17;18.75;;;17.35;;
74872;SDS011;68776;44.762;37.698;2023-07-24T07:53:18;18.02;;;16.67;;